createdAt,value
2023-02-12T00:02:22.056Z,1.70
2023-02-12T00:04:51.577Z,1.40
2023-02-12T00:07:20.858Z,1.30
2023-02-12T00:09:50.409Z,1.75
2023-02-12T00:12:19.602Z,1.35
2023-02-12T00:14:49.320Z,1.10
2023-02-12T00:17:18.597Z,1.30
2023-02-12T00:19:51.382Z,2.60
2023-02-12T00:22:20.572Z,1.45
2023-02-12T00:24:49.991Z,0.88
2023-02-12T00:27:19.367Z,1.50
2023-02-12T00:29:48.864Z,1.15
2023-02-12T00:32:19.694Z,1.10
2023-02-12T00:34:50.845Z,1.00
2023-02-12T00:37:20.238Z,0.93
2023-02-12T00:39:49.942Z,1.30
2023-02-12T00:42:19.089Z,1.30
2023-02-12T00:44:48.716Z,1.13
2023-02-12T00:47:18.076Z,1.00
2023-02-12T00:49:47.526Z,1.20
2023-02-12T00:52:18.150Z,1.50
2023-02-12T00:54:47.753Z,0.85
2023-02-12T00:57:17.085Z,0.93
2023-02-12T00:59:46.678Z,1.17
2023-02-12T01:02:16.120Z,0.85
2023-02-12T01:04:45.721Z,1.23
2023-02-12T01:07:14.952Z,1.65
2023-02-12T01:09:45.977Z,1.13
2023-02-12T01:12:15.311Z,1.10
2023-02-12T01:14:45.193Z,1.42
2023-02-12T01:17:14.655Z,1.10
2023-02-12T01:19:47.147Z,1.50
2023-02-12T01:22:16.376Z,1.50
2023-02-12T01:24:47.417Z,1.17
2023-02-12T01:27:17.462Z,1.30
2023-02-12T01:29:46.915Z,1.27
2023-02-12T01:32:16.262Z,1.42
2023-02-12T01:34:45.784Z,1.17
2023-02-12T01:37:15.044Z,1.50
2023-02-12T01:39:44.659Z,1.20
2023-02-12T01:42:18.739Z,1.30
2023-02-12T01:45:26.224Z,1.48
2023-02-12T01:47:56.019Z,1.10
2023-02-12T01:50:25.548Z,1.45
2023-02-12T01:52:58.900Z,1.35
2023-02-12T01:55:28.437Z,1.17
2023-02-12T01:57:59.259Z,2.05
2023-02-12T02:00:28.939Z,1.70
2023-02-12T02:03:02.817Z,1.30
2023-02-12T02:05:42.353Z,1.60
2023-02-12T02:08:12.230Z,1.13
2023-02-12T02:10:42.007Z,2.03
2023-02-12T02:13:30.435Z,2.30
2023-02-12T02:16:07.613Z,2.25
2023-02-12T02:18:45.687Z,3.40
2023-02-12T02:21:51.455Z,2.47
2023-02-12T02:25:00.550Z,2.35
2023-02-12T02:27:41.075Z,2.95
2023-02-12T02:30:32.774Z,1.92
2023-02-12T02:33:14.899Z,2.05
2023-02-12T02:35:51.471Z,2.83
2023-02-12T02:38:26.906Z,2.17
2023-02-12T02:41:03.883Z,2.22
2023-02-12T02:43:37.912Z,2.53
2023-02-12T02:46:15.009Z,3.10
2023-02-12T02:48:48.304Z,2.65
2023-02-12T02:51:21.246Z,2.03
2023-02-12T02:53:55.261Z,2.30
2023-02-12T02:56:29.330Z,3.33
2023-02-12T02:59:04.851Z,2.25
2023-02-12T03:01:41.318Z,2.13
2023-02-12T03:04:15.067Z,3.85
2023-02-12T03:06:51.966Z,2.22
2023-02-12T03:09:27.444Z,2.50
2023-02-12T03:12:00.829Z,2.45
2023-02-12T03:14:33.543Z,2.17
2023-02-12T03:17:08.045Z,2.42
2023-02-12T03:19:42.711Z,2.03
2023-02-12T03:22:15.593Z,2.30
2023-02-12T03:24:49.538Z,2.42
2023-02-12T03:27:22.708Z,3.03
2023-02-12T03:29:53.094Z,1.85
2023-02-12T03:33:47.066Z,2.20
2023-02-12T03:36:26.789Z,2.05
2023-02-12T03:38:58.855Z,2.13
2023-02-12T03:41:35.146Z,2.20
2023-02-12T03:44:11.696Z,3.40
2023-02-12T03:46:48.206Z,2.22
2023-02-12T03:49:24.670Z,2.60
2023-02-12T03:51:55.630Z,2.70
2023-02-12T03:54:25.659Z,1.80
2023-02-12T03:56:58.938Z,2.90
2023-02-12T03:59:28.749Z,2.83
2023-02-12T04:02:00.915Z,3.08
2023-02-12T04:04:30.928Z,2.60
2023-02-12T04:07:02.299Z,2.97
2023-02-12T04:09:33.603Z,2.95
2023-02-12T04:12:31.861Z,2.75
2023-02-12T04:15:25.659Z,3.03
2023-02-12T04:18:06.124Z,3.17
2023-02-12T04:20:49.007Z,3.42
2023-02-12T04:23:32.726Z,3.08
2023-02-12T04:26:12.165Z,3.55
2023-02-12T04:28:49.368Z,2.90
2023-02-12T04:31:30.681Z,3.20
2023-02-12T04:34:08.816Z,2.90
2023-02-12T04:36:46.243Z,3.17
2023-02-12T04:39:23.390Z,3.35
2023-02-12T04:41:53.446Z,3.72
2023-02-12T04:44:26.720Z,3.20
2023-02-12T04:46:56.028Z,2.65
2023-02-12T04:49:26.466Z,3.20
2023-02-12T04:51:55.870Z,2.75
2023-02-12T04:54:26.975Z,3.78
2023-02-12T04:56:56.256Z,3.28
2023-02-12T04:59:25.797Z,3.17
2023-02-12T05:01:55.057Z,2.45
2023-02-12T05:04:24.564Z,3.30
2023-02-12T05:06:53.713Z,2.97
2023-02-12T05:09:23.446Z,3.33
2023-02-12T05:11:54.091Z,3.13
2023-02-12T05:14:26.114Z,3.20
2023-02-12T05:16:55.436Z,3.80
2023-02-12T05:19:25.055Z,2.83
2023-02-12T05:21:54.304Z,3.97
2023-02-12T05:24:23.893Z,3.70
2023-02-12T05:26:54.602Z,3.42
2023-02-12T05:29:24.026Z,3.50
2023-02-12T05:31:53.532Z,3.45
2023-02-12T05:34:23.165Z,3.00
2023-02-12T05:36:52.328Z,3.30
2023-02-12T05:39:21.956Z,3.67
2023-02-12T05:41:51.165Z,3.60
2023-02-12T05:44:22.203Z,3.42
2023-02-12T05:46:51.457Z,3.35
2023-02-12T05:49:21.088Z,3.03
2023-02-12T05:51:50.425Z,3.83
2023-02-12T05:54:19.948Z,3.45
2023-02-12T05:56:49.890Z,2.53
2023-02-12T05:59:22.690Z,3.28
2023-02-12T06:01:53.192Z,3.00
2023-02-12T06:04:26.243Z,3.33
2023-02-12T06:06:56.868Z,3.08
2023-02-12T06:09:26.508Z,3.00
2023-02-12T06:11:55.774Z,3.67
2023-02-12T06:14:26.413Z,2.88
2023-02-12T06:16:55.938Z,2.75
2023-02-12T06:19:25.719Z,3.03
2023-02-12T06:21:55.253Z,3.35
2023-02-12T06:24:24.640Z,3.15
2023-02-12T06:26:54.461Z,3.30
2023-02-12T06:29:25.529Z,3.55
2023-02-12T06:31:55.288Z,4.13
2023-02-12T06:34:24.839Z,4.50
2023-02-12T06:36:54.386Z,4.05
2023-02-12T06:39:23.621Z,3.40
2023-02-12T06:41:53.229Z,3.88
2023-02-12T06:44:22.537Z,4.90
2023-02-12T06:46:53.737Z,4.57
2023-02-12T06:49:23.001Z,4.93
2023-02-12T06:51:52.547Z,4.90
2023-02-12T06:54:21.888Z,4.80
2023-02-12T06:56:51.574Z,4.57
2023-02-12T06:59:21.215Z,3.63
2023-02-12T07:01:52.245Z,3.58
2023-02-12T07:04:21.636Z,3.53
2023-02-12T07:06:52.310Z,4.93
2023-02-12T07:09:21.567Z,4.50
2023-02-12T07:11:52.222Z,4.07
2023-02-12T07:14:21.624Z,3.45
2023-02-12T07:16:52.597Z,3.20
2023-02-12T07:19:21.761Z,3.78
2023-02-12T07:21:51.566Z,3.03
2023-02-12T07:24:20.824Z,4.25
2023-02-12T07:26:50.366Z,3.38
2023-02-12T07:29:19.540Z,3.72
2023-02-12T07:31:49.287Z,3.42
2023-02-12T07:34:20.277Z,3.97
2023-02-12T07:36:49.870Z,4.10
2023-02-12T07:39:19.094Z,4.03
2023-02-12T07:41:48.556Z,3.20
2023-02-12T07:44:17.861Z,3.30
2023-02-12T07:46:49.156Z,3.58
2023-02-12T07:49:24.403Z,2.85
2023-02-12T07:51:55.666Z,4.03
2023-02-12T07:54:25.164Z,4.47
2023-02-12T07:56:55.034Z,5.90
2023-02-12T07:59:24.339Z,8.60
2023-02-12T08:01:57.224Z,15.60
2023-02-12T08:04:28.205Z,15.18
2023-02-12T08:06:58.609Z,12.48
2023-02-12T08:09:30.963Z,8.80
2023-02-12T08:12:00.766Z,11.93
2023-02-12T08:14:30.408Z,7.22
2023-02-12T08:16:59.940Z,7.32
2023-02-12T08:19:30.622Z,5.47
2023-02-12T08:22:02.326Z,4.85
2023-02-12T08:24:32.029Z,4.70
2023-02-12T08:27:01.724Z,4.57
2023-02-12T08:29:32.144Z,4.30
2023-02-12T08:32:03.264Z,4.03
2023-02-12T08:34:35.566Z,4.15
2023-02-12T08:37:07.731Z,5.03
2023-02-12T08:39:37.260Z,5.90
2023-02-12T08:42:07.006Z,7.55
2023-02-12T08:44:36.825Z,5.70
2023-02-12T08:47:07.310Z,4.57
2023-02-12T08:49:38.252Z,7.05
2023-02-12T08:52:07.878Z,4.88
2023-02-12T08:54:37.145Z,2.92
2023-02-12T08:57:07.023Z,5.07
2023-02-12T08:59:36.217Z,3.40
2023-02-12T09:02:08.872Z,3.95
2023-02-12T09:04:41.108Z,5.25
2023-02-12T09:07:11.057Z,6.43
2023-02-12T09:09:40.406Z,5.40
2023-02-12T09:12:10.111Z,6.00
2023-02-12T09:14:39.722Z,5.38
2023-02-12T09:17:09.428Z,6.22
2023-02-12T09:19:40.385Z,5.50
2023-02-12T09:22:09.877Z,5.20
2023-02-12T09:24:39.445Z,5.28
2023-02-12T09:27:09.067Z,5.10
2023-02-12T09:29:38.450Z,5.25
2023-02-12T09:32:09.387Z,4.60
2023-02-12T09:34:40.145Z,4.32
2023-02-12T09:37:09.751Z,5.32
2023-02-12T09:39:39.265Z,5.97
2023-02-12T09:42:39.261Z,4.82
2023-02-12T09:45:18.234Z,5.28
2023-02-12T09:47:56.536Z,5.25
2023-02-12T09:50:44.828Z,7.38
2023-02-12T09:53:17.879Z,6.13
2023-02-12T09:55:47.661Z,5.28
2023-02-12T09:58:35.636Z,5.30
2023-02-12T10:01:14.048Z,4.85
2023-02-12T10:03:45.212Z,4.55
2023-02-12T10:06:20.301Z,4.20
2023-02-12T10:09:09.366Z,4.82
2023-02-12T10:11:53.219Z,4.97
2023-02-12T10:14:52.460Z,4.85
2023-02-12T10:17:30.986Z,4.15
2023-02-12T10:20:40.386Z,4.40
2023-02-12T10:23:26.504Z,4.38
2023-02-12T10:25:59.205Z,4.97
2023-02-12T10:28:34.527Z,4.80
2023-02-12T10:31:09.054Z,4.10
2023-02-12T10:33:43.706Z,4.45
2023-02-12T10:36:25.345Z,4.80
2023-02-12T10:39:02.561Z,5.32
2023-02-12T10:41:39.484Z,5.18
2023-02-12T10:44:10.639Z,7.18
2023-02-12T10:46:40.302Z,5.00
2023-02-12T10:49:12.842Z,4.40
2023-02-12T10:51:58.574Z,4.97
2023-02-12T10:54:38.682Z,5.47
2023-02-12T10:57:20.077Z,4.80
2023-02-12T10:59:50.868Z,5.28
2023-02-12T11:02:26.609Z,4.15
2023-02-12T11:07:27.452Z,6.20
2023-02-12T11:09:58.979Z,4.82
2023-02-12T11:12:35.917Z,5.35
2023-02-12T11:15:09.004Z,5.13
2023-02-12T11:17:40.743Z,5.60
2023-02-12T11:20:24.299Z,6.03
2023-02-12T11:22:56.447Z,5.57
2023-02-12T11:25:29.207Z,5.43
2023-02-12T11:28:14.323Z,5.45
2023-02-12T11:30:58.462Z,5.18
2023-02-12T11:33:32.493Z,8.60
2023-02-12T11:36:07.228Z,6.40
2023-02-12T11:41:25.578Z,6.10
2023-02-12T11:43:55.461Z,6.22
2023-02-12T11:46:28.167Z,6.07
2023-02-12T11:49:00.874Z,6.57
2023-02-12T11:51:33.023Z,7.25
2023-02-12T11:54:06.376Z,7.00
2023-02-12T11:56:46.162Z,6.57
2023-02-12T11:59:33.345Z,8.93
2023-02-12T12:02:17.216Z,8.85
2023-02-12T12:04:51.394Z,8.40
2023-02-12T12:07:26.532Z,7.88
2023-02-12T12:12:38.655Z,8.00
2023-02-12T12:15:34.894Z,7.72
2023-02-12T12:18:29.807Z,8.13
2023-02-12T12:21:11.196Z,8.57
2023-02-12T12:23:45.795Z,8.07
2023-02-12T12:26:25.130Z,8.95
2023-02-12T12:29:02.804Z,7.70
2023-02-12T12:31:36.036Z,7.90
2023-02-12T12:34:10.194Z,7.15
2023-02-12T12:37:24.159Z,7.63
2023-02-12T12:40:11.835Z,6.65
2023-02-12T12:43:03.601Z,5.30
2023-02-12T12:46:05.299Z,7.35
2023-02-12T12:48:49.420Z,5.88
2023-02-12T12:51:41.213Z,6.00
2023-02-12T12:54:26.912Z,6.90
2023-02-12T12:57:06.321Z,5.38
2023-02-12T13:00:14.826Z,5.28
2023-02-12T13:03:18.029Z,5.40
2023-02-12T13:06:26.748Z,5.50
2023-02-12T13:09:30.286Z,5.88
2023-02-12T13:12:29.477Z,6.63
2023-02-12T13:15:05.603Z,5.88
2023-02-12T13:17:45.976Z,5.15
2023-02-12T13:20:23.478Z,6.03
2023-02-12T13:22:58.818Z,4.70
2023-02-12T13:25:33.298Z,5.25
2023-02-12T13:28:06.695Z,4.78
2023-02-12T13:30:44.414Z,4.82
2023-02-12T13:33:21.257Z,5.03
2023-02-12T13:35:56.812Z,5.47
2023-02-12T13:38:30.022Z,4.28
2023-02-12T13:41:03.445Z,5.95
2023-02-12T13:43:45.611Z,5.65
2023-02-12T13:46:22.817Z,4.93
2023-02-12T13:49:02.042Z,5.28
2023-02-12T13:51:43.095Z,5.60
2023-02-12T13:54:31.337Z,5.57
2023-02-12T13:57:03.517Z,5.45
2023-02-12T13:59:53.781Z,6.18
2023-02-12T14:02:53.714Z,4.35
2023-02-12T14:05:27.281Z,4.82
2023-02-12T14:08:00.622Z,5.15
2023-02-12T14:10:35.935Z,5.75
2023-02-12T14:13:17.670Z,4.28
2023-02-12T14:15:51.554Z,4.53
2023-02-12T14:18:36.001Z,4.20
2023-02-12T14:21:38.920Z,4.78
2023-02-12T14:24:52.749Z,6.03
2023-02-12T14:27:37.592Z,5.68
2023-02-12T14:30:31.607Z,4.63
2023-02-12T14:33:25.936Z,5.18
2023-02-12T14:36:15.367Z,5.93
2023-02-12T14:39:05.533Z,4.75
2023-02-12T14:41:39.017Z,3.95
2023-02-12T14:44:42.036Z,4.60
2023-02-12T14:47:44.182Z,4.43
2023-02-12T14:50:24.736Z,4.43
2023-02-12T14:53:00.187Z,3.90
2023-02-12T14:58:06.749Z,4.18
2023-02-12T15:00:42.055Z,5.55
2023-02-12T15:03:25.333Z,6.47
2023-02-12T15:06:11.348Z,6.05
2023-02-12T15:08:48.723Z,10.80
2023-02-12T15:11:36.844Z,11.57
2023-02-12T15:14:14.109Z,11.50
2023-02-12T15:16:52.708Z,9.02
2023-02-12T15:19:39.376Z,4.53
2023-02-12T15:22:21.767Z,5.13
2023-02-12T15:24:51.454Z,4.82
2023-02-12T15:27:22.255Z,6.80
2023-02-12T15:29:54.734Z,5.03
2023-02-12T15:32:28.621Z,5.18
2023-02-12T15:34:58.537Z,5.05
2023-02-12T15:37:31.033Z,4.90
2023-02-12T15:40:03.838Z,6.60
2023-02-12T15:42:35.654Z,6.38
2023-02-12T15:45:21.748Z,6.47
2023-02-12T15:48:02.120Z,4.32
2023-02-12T15:50:33.350Z,5.30
2023-02-12T15:53:04.366Z,4.10
2023-02-12T15:55:41.422Z,4.32
2023-02-12T15:58:22.904Z,5.28
2023-02-12T16:00:56.098Z,3.63
2023-02-12T16:03:34.063Z,4.65
2023-02-12T16:06:11.284Z,5.35
2023-02-12T16:08:41.800Z,6.35
2023-02-12T16:11:16.842Z,6.22
2023-02-12T16:13:49.003Z,5.50
2023-02-12T16:16:25.104Z,4.97
2023-02-12T16:19:17.538Z,6.30
2023-02-12T16:21:49.375Z,5.72
2023-02-12T16:24:32.927Z,5.07
2023-02-12T16:27:08.788Z,10.65
2023-02-12T16:29:46.752Z,9.00
2023-02-12T16:32:32.164Z,5.57
2023-02-12T16:35:05.408Z,5.45
2023-02-12T16:37:47.219Z,4.00
2023-02-12T16:40:30.648Z,8.27
2023-02-12T16:43:03.456Z,8.55
2023-02-12T16:45:39.175Z,10.68
2023-02-12T16:48:23.441Z,8.13
2023-02-12T16:50:55.896Z,6.00
2023-02-12T16:53:47.312Z,4.82
2023-02-12T16:56:21.268Z,3.88
2023-02-12T16:58:54.714Z,4.47
2023-02-12T17:01:27.689Z,4.03
2023-02-12T17:03:59.462Z,7.18
2023-02-12T17:06:31.035Z,15.25
2023-02-12T17:09:01.155Z,6.10
2023-02-12T17:11:31.129Z,8.07
2023-02-12T17:14:00.829Z,5.72
2023-02-12T17:16:32.066Z,4.35
2023-02-12T17:19:03.255Z,3.80
2023-02-12T17:21:38.313Z,4.47
2023-02-12T17:24:10.224Z,3.47
2023-02-12T17:26:40.060Z,2.97
2023-02-12T17:29:09.372Z,2.85
2023-02-12T17:31:39.012Z,3.40
2023-02-12T17:34:09.919Z,4.18
2023-02-12T17:36:40.203Z,2.90
2023-02-12T17:39:10.651Z,4.75
2023-02-12T17:41:40.914Z,3.80
2023-02-12T17:44:11.979Z,3.65
2023-02-12T17:46:42.107Z,4.68
2023-02-12T17:49:13.369Z,4.30
2023-02-12T17:51:43.249Z,3.80
2023-02-12T17:54:14.032Z,5.90
2023-02-12T17:56:43.826Z,4.15
2023-02-12T17:59:13.433Z,4.32
2023-02-12T18:01:43.330Z,4.80
2023-02-12T18:04:14.225Z,4.47
2023-02-12T18:06:45.151Z,4.25
2023-02-12T18:09:14.898Z,4.80
2023-02-12T18:11:44.558Z,4.97
2023-02-12T18:14:14.408Z,6.55
2023-02-12T18:16:44.082Z,6.53
2023-02-12T18:19:14.930Z,4.60
2023-02-12T18:21:44.715Z,4.07
2023-02-12T18:24:14.890Z,4.05
2023-02-12T18:26:45.458Z,4.72
2023-02-12T18:29:15.080Z,5.30
2023-02-12T18:31:44.998Z,7.07
2023-02-12T18:34:15.656Z,7.07
2023-02-12T18:36:45.672Z,9.70
2023-02-12T18:39:14.962Z,11.50
2023-02-12T18:41:45.089Z,12.27
2023-02-12T18:44:14.900Z,10.05
2023-02-12T18:46:44.633Z,7.13
2023-02-12T18:49:16.849Z,6.97
2023-02-12T18:51:46.510Z,7.13
2023-02-12T18:54:16.781Z,6.10
2023-02-12T18:56:48.262Z,7.00
2023-02-12T18:59:18.995Z,6.78
2023-02-12T19:01:50.786Z,6.72
2023-02-12T19:04:23.847Z,6.35
2023-02-12T19:06:55.622Z,5.20
2023-02-12T19:09:29.113Z,5.50
2023-02-12T19:12:01.538Z,7.57
2023-02-12T19:14:31.580Z,7.20
2023-02-12T19:17:01.514Z,7.35
2023-02-12T19:19:32.472Z,6.95
2023-02-12T19:22:02.023Z,7.68
2023-02-12T19:24:44.696Z,7.05
2023-02-12T19:27:16.172Z,7.75
2023-02-12T19:29:45.828Z,6.25
2023-02-12T19:32:15.564Z,6.25
2023-02-12T19:34:46.590Z,4.45
2023-02-12T19:37:16.655Z,4.88
2023-02-12T19:39:46.971Z,4.93
2023-02-12T19:42:17.679Z,4.90
2023-02-12T19:44:47.634Z,4.35
2023-02-12T19:47:17.892Z,4.65
2023-02-12T19:49:48.581Z,4.25
2023-02-12T19:52:18.273Z,4.75
2023-02-12T19:54:47.586Z,4.95
2023-02-12T19:57:17.249Z,4.85
2023-02-12T19:59:47.105Z,4.57
2023-02-12T20:02:16.772Z,4.00
2023-02-12T20:04:47.758Z,4.03
2023-02-12T20:07:17.207Z,4.20
2023-02-12T20:09:46.762Z,4.47
2023-02-12T20:12:16.685Z,3.75
2023-02-12T20:14:46.169Z,4.30
2023-02-12T20:17:15.919Z,3.47
2023-02-12T20:19:45.681Z,3.85
2023-02-12T20:22:17.058Z,3.92
2023-02-12T20:24:46.464Z,4.68
2023-02-12T20:27:16.319Z,6.47
2023-02-12T20:29:45.838Z,4.00
2023-02-12T20:32:15.677Z,9.75
2023-02-12T20:34:50.856Z,8.63
2023-02-12T20:39:51.370Z,3.97
2023-02-12T20:42:21.080Z,3.60
2023-02-12T20:44:50.481Z,8.63
2023-02-12T20:47:23.268Z,4.63
2023-02-12T20:49:52.688Z,4.43
2023-02-12T20:52:24.108Z,3.97
2023-02-12T20:54:53.418Z,4.38
2023-02-12T20:57:22.899Z,3.70
2023-02-12T20:59:52.119Z,3.63
2023-02-12T21:02:22.260Z,4.63
2023-02-12T21:04:52.521Z,6.85
2023-02-12T21:07:24.448Z,4.50
2023-02-12T21:09:56.767Z,5.50
2023-02-12T21:12:26.446Z,3.75
2023-02-12T21:14:55.714Z,4.13
2023-02-12T21:17:25.315Z,3.60
2023-02-12T21:19:54.581Z,4.47
2023-02-12T21:22:25.527Z,4.07
2023-02-12T21:24:54.943Z,7.00
2023-02-12T21:27:24.537Z,3.97
2023-02-12T21:29:53.872Z,4.35
2023-02-12T21:32:23.705Z,3.40
2023-02-12T21:34:53.095Z,3.53
2023-02-12T21:37:24.194Z,3.70
2023-02-12T21:39:53.403Z,3.65
2023-02-12T21:42:23.126Z,3.85
2023-02-12T21:44:52.789Z,3.25
2023-02-12T21:47:22.200Z,2.92
2023-02-12T21:49:52.100Z,3.63
2023-02-12T21:52:21.774Z,2.90
2023-02-12T21:54:53.597Z,3.28
2023-02-12T21:57:23.804Z,3.30
2023-02-12T21:59:53.133Z,3.55
2023-02-12T22:02:22.821Z,3.75
2023-02-12T22:04:54.819Z,3.55
2023-02-12T22:07:24.494Z,3.90
2023-02-12T22:09:57.434Z,3.05
2023-02-12T22:12:30.359Z,2.90
2023-02-12T22:14:59.655Z,3.05
2023-02-12T22:17:29.138Z,4.43
2023-02-12T22:19:58.367Z,3.28
2023-02-12T22:22:28.112Z,4.07
2023-02-12T22:24:58.725Z,3.28
2023-02-12T22:27:28.234Z,2.83
2023-02-12T22:29:57.607Z,3.20
2023-02-12T22:32:27.893Z,3.53
2023-02-12T22:34:57.129Z,3.13
2023-02-12T22:37:26.665Z,2.53
2023-02-12T22:39:57.631Z,3.30
2023-02-12T22:42:27.158Z,2.47
2023-02-12T22:44:56.412Z,2.42
2023-02-12T22:47:26.199Z,3.58
2023-02-12T22:49:55.709Z,2.72
2023-02-12T22:52:25.194Z,2.38
2023-02-12T22:54:54.477Z,2.80
2023-02-12T22:57:25.539Z,2.65
2023-02-12T22:59:55.210Z,2.58
2023-02-12T23:02:24.757Z,2.20
2023-02-12T23:04:54.062Z,2.35
2023-02-12T23:07:23.647Z,2.38
2023-02-12T23:09:52.824Z,1.75
2023-02-12T23:12:22.472Z,1.73
2023-02-12T23:14:53.011Z,2.55
2023-02-12T23:17:22.584Z,1.77
2023-02-12T23:19:51.814Z,1.83
2023-02-12T23:22:21.427Z,2.05
2023-02-12T23:24:51.101Z,2.03
2023-02-12T23:27:20.803Z,2.72
2023-02-12T23:29:50.043Z,1.70
2023-02-12T23:32:20.995Z,1.95
2023-02-12T23:34:50.178Z,1.58
2023-02-12T23:37:19.786Z,1.95
2023-02-12T23:39:48.935Z,1.70
2023-02-12T23:42:19.213Z,1.65
2023-02-12T23:44:48.402Z,1.42
2023-02-12T23:47:19.288Z,1.60
2023-02-12T23:49:48.514Z,1.35
2023-02-12T23:52:17.920Z,1.92
2023-02-12T23:54:47.251Z,1.55
2023-02-12T23:57:16.808Z,1.40
2023-02-12T23:59:46.017Z,1.45
